createdAt,value
2018-12-27T00:00:10.811Z,3.20
2018-12-27T00:01:17.674Z,3.20
2018-12-27T00:02:25.175Z,3.20
2018-12-27T00:03:32.448Z,3.20
2018-12-27T00:04:39.511Z,3.20
2018-12-27T00:05:46.375Z,3.20
2018-12-27T00:06:53.394Z,3.20
2018-12-27T00:08:00.122Z,3.20
2018-12-27T00:09:08.752Z,3.20
2018-12-27T00:10:15.834Z,3.20
2018-12-27T00:11:23.138Z,3.20
2018-12-27T00:12:30.182Z,3.20
2018-12-27T00:13:37.223Z,3.20
2018-12-27T00:14:44.409Z,3.20
2018-12-27T00:15:51.627Z,3.20
2018-12-27T00:16:58.407Z,3.20
2018-12-27T00:18:05.229Z,3.20
2018-12-27T00:19:12.355Z,3.20
2018-12-27T00:20:19.287Z,3.20
2018-12-27T00:21:26.543Z,3.20
2018-12-27T00:22:33.581Z,3.20
2018-12-27T00:23:40.285Z,3.20
2018-12-27T00:24:47.734Z,3.20
2018-12-27T00:25:54.841Z,3.20
2018-12-27T00:27:01.961Z,3.20
2018-12-27T00:28:08.719Z,3.20
2018-12-27T00:29:15.390Z,3.20
2018-12-27T00:30:22.271Z,3.20
2018-12-27T00:31:29.166Z,3.20
2018-12-27T00:32:36.158Z,3.20
2018-12-27T00:33:43.344Z,3.20
2018-12-27T00:34:50.226Z,3.20
2018-12-27T00:35:57.149Z,3.20
2018-12-27T00:37:04.380Z,3.20
2018-12-27T00:38:11.783Z,3.20
2018-12-27T00:39:18.681Z,3.20
2018-12-27T00:40:25.690Z,3.20
2018-12-27T00:41:33.503Z,3.20
2018-12-27T00:42:40.445Z,3.20
2018-12-27T00:43:47.377Z,3.20
2018-12-27T00:44:54.263Z,3.20
2018-12-27T00:46:01.434Z,3.20
2018-12-27T00:47:08.724Z,3.20
2018-12-27T00:48:16.118Z,3.20
2018-12-27T00:49:23.032Z,3.20
2018-12-27T00:50:29.946Z,3.20
2018-12-27T00:51:36.884Z,3.20
2018-12-27T00:52:44.049Z,3.20
2018-12-27T00:53:51.381Z,3.20
2018-12-27T00:54:58.786Z,3.20
2018-12-27T00:56:05.684Z,3.20
2018-12-27T00:57:12.593Z,3.20
2018-12-27T00:58:19.454Z,3.20
2018-12-27T00:59:27.022Z,3.20
2018-12-27T01:00:34.276Z,3.20
2018-12-27T01:01:41.156Z,3.20
2018-12-27T01:02:48.703Z,3.20
2018-12-27T01:03:55.604Z,3.20
2018-12-27T01:05:03.118Z,3.20
2018-12-27T01:06:10.840Z,3.20
2018-12-27T01:07:17.718Z,3.20
2018-12-27T01:08:24.590Z,3.20
2018-12-27T01:09:31.492Z,3.20
2018-12-27T01:10:38.489Z,3.20
2018-12-27T01:11:45.453Z,3.20
2018-12-27T01:12:52.461Z,3.20
2018-12-27T01:14:01.131Z,3.10
2018-12-27T01:15:08.576Z,3.20
2018-12-27T01:16:15.547Z,3.20
2018-12-27T01:17:22.407Z,3.20
2018-12-27T01:18:29.658Z,3.20
2018-12-27T01:19:36.823Z,3.20
2018-12-27T01:20:43.886Z,3.20
2018-12-27T01:21:51.181Z,3.20
2018-12-27T01:22:59.048Z,3.20
2018-12-27T01:24:06.003Z,3.20
2018-12-27T01:25:13.266Z,3.20
2018-12-27T01:26:20.222Z,3.20
2018-12-27T01:27:27.571Z,3.20
2018-12-27T01:28:34.566Z,3.20
2018-12-27T01:29:41.546Z,3.20
2018-12-27T01:30:48.904Z,3.20
2018-12-27T01:31:55.799Z,3.20
2018-12-27T01:33:03.317Z,3.20
2018-12-27T01:34:10.600Z,3.20
2018-12-27T01:35:18.106Z,3.20
2018-12-27T01:36:24.971Z,3.20
2018-12-27T01:37:32.233Z,3.20
2018-12-27T01:38:39.859Z,3.30
2018-12-27T01:39:46.747Z,3.20
2018-12-27T01:40:53.990Z,3.20
2018-12-27T01:42:01.341Z,3.30
2018-12-27T01:43:08.330Z,3.30
2018-12-27T01:44:15.364Z,3.30
2018-12-27T01:45:22.289Z,3.20
2018-12-27T01:46:29.566Z,3.30
2018-12-27T01:47:36.846Z,3.30
2018-12-27T01:48:44.068Z,3.30
2018-12-27T01:49:51.605Z,3.30
2018-12-27T01:50:58.561Z,3.30
2018-12-27T01:52:05.824Z,3.30
2018-12-27T01:53:12.994Z,3.30
2018-12-27T01:54:19.880Z,3.30
2018-12-27T01:55:27.615Z,3.30
2018-12-27T01:56:34.527Z,3.30
2018-12-27T01:57:42.503Z,3.30
2018-12-27T01:58:49.729Z,3.30
2018-12-27T01:59:56.633Z,3.30
2018-12-27T02:01:03.550Z,3.30
2018-12-27T02:02:10.796Z,3.30
2018-12-27T02:03:17.814Z,3.30
2018-12-27T02:04:24.715Z,3.30
2018-12-27T02:05:31.971Z,3.30
2018-12-27T02:06:38.852Z,3.30
2018-12-27T02:07:45.738Z,3.30
2018-12-27T02:08:52.838Z,3.30
2018-12-27T02:09:59.796Z,3.30
2018-12-27T02:11:06.699Z,3.30
2018-12-27T02:12:13.574Z,3.30
2018-12-27T02:13:20.841Z,3.30
2018-12-27T02:14:27.911Z,3.30
2018-12-27T02:15:35.117Z,3.30
2018-12-27T02:16:42.301Z,3.30
2018-12-27T02:17:49.811Z,3.30
2018-12-27T02:18:56.678Z,3.30
2018-12-27T02:20:22.819Z,3.30
2018-12-27T02:21:29.751Z,3.30
2018-12-27T02:22:37.086Z,3.30
2018-12-27T02:23:44.012Z,3.20
2018-12-27T02:24:51.231Z,3.30
2018-12-27T02:25:58.127Z,3.30
2018-12-27T02:27:05.040Z,3.30
2018-12-27T02:28:12.367Z,3.30
2018-12-27T02:29:19.219Z,3.30
2018-12-27T02:30:26.196Z,3.30
2018-12-27T02:31:33.145Z,3.30
2018-12-27T02:32:40.120Z,3.30
2018-12-27T02:33:47.027Z,3.30
2018-12-27T02:34:54.534Z,3.30
2018-12-27T02:36:01.449Z,3.30
2018-12-27T02:37:08.392Z,3.30
2018-12-27T02:38:15.266Z,3.30
2018-12-27T02:39:22.212Z,3.30
2018-12-27T02:40:29.071Z,3.30
2018-12-27T02:41:36.572Z,3.30
2018-12-27T02:42:43.540Z,3.30
2018-12-27T02:43:50.436Z,3.30
2018-12-27T02:44:57.762Z,3.30
2018-12-27T02:46:04.678Z,3.20
2018-12-27T02:47:11.924Z,3.30
2018-12-27T02:48:20.093Z,3.30
2018-12-27T02:49:27.706Z,3.20
2018-12-27T02:50:35.013Z,3.30
2018-12-27T02:51:41.933Z,3.20
2018-12-27T02:52:49.701Z,3.20
2018-12-27T02:53:56.612Z,3.20
2018-12-27T02:55:03.520Z,3.20
2018-12-27T02:56:10.722Z,3.20
2018-12-27T02:57:17.640Z,3.20
2018-12-27T02:58:24.801Z,3.20
2018-12-27T02:59:31.686Z,3.20
2018-12-27T03:00:38.639Z,3.20
2018-12-27T03:01:45.538Z,3.20
2018-12-27T03:02:55.099Z,3.20
2018-12-27T03:04:02.044Z,3.20
2018-12-27T03:05:09.374Z,3.20
2018-12-27T03:06:16.621Z,3.20
2018-12-27T03:07:23.828Z,3.20
2018-12-27T03:08:30.751Z,3.20
2018-12-27T03:09:38.023Z,3.20
2018-12-27T03:10:45.508Z,3.20
2018-12-27T03:11:53.058Z,3.20
2018-12-27T03:12:59.955Z,3.10
2018-12-27T03:14:07.261Z,3.20
2018-12-27T03:15:14.570Z,3.10
2018-12-27T03:16:21.942Z,3.20
2018-12-27T03:17:29.168Z,3.20
2018-12-27T03:18:36.385Z,3.20
2018-12-27T03:19:43.597Z,3.20
2018-12-27T03:20:50.471Z,3.20
2018-12-27T03:21:57.954Z,3.20
2018-12-27T03:23:05.198Z,3.20
2018-12-27T03:24:12.470Z,3.20
2018-12-27T03:25:19.366Z,3.10
2018-12-27T03:26:26.252Z,3.20
2018-12-27T03:27:33.169Z,3.20
2018-12-27T03:28:40.853Z,3.10
2018-12-27T03:29:47.762Z,3.20
2018-12-27T03:30:54.699Z,3.10
2018-12-27T03:32:01.585Z,3.20
2018-12-27T03:33:08.514Z,3.20
2018-12-27T03:34:15.448Z,3.20
2018-12-27T03:35:22.318Z,3.20
2018-12-27T03:36:29.510Z,3.10
2018-12-27T03:37:37.332Z,3.20
2018-12-27T03:38:44.915Z,3.20
2018-12-27T03:39:51.851Z,3.10
2018-12-27T03:40:59.056Z,3.10
2018-12-27T03:42:06.473Z,3.10
2018-12-27T03:43:13.716Z,3.20
2018-12-27T03:44:21.086Z,3.20
2018-12-27T03:45:28.281Z,3.10
2018-12-27T03:46:35.164Z,3.20
2018-12-27T03:47:42.116Z,3.10
2018-12-27T03:48:49.021Z,3.10
2018-12-27T03:49:56.291Z,3.10
2018-12-27T03:51:03.617Z,3.10
2018-12-27T03:52:10.540Z,3.10
2018-12-27T03:53:17.722Z,3.10
2018-12-27T03:54:24.668Z,3.10
2018-12-27T03:55:31.554Z,3.10
2018-12-27T03:56:38.883Z,3.10
2018-12-27T03:57:45.847Z,3.10
2018-12-27T03:58:52.787Z,3.10
2018-12-27T04:00:00.053Z,3.10
2018-12-27T04:01:07.016Z,3.10
2018-12-27T04:02:13.891Z,3.10
2018-12-27T04:03:20.818Z,3.10
2018-12-27T04:04:27.737Z,3.10
2018-12-27T04:05:34.962Z,3.10
2018-12-27T04:06:41.833Z,3.10
2018-12-27T04:07:49.042Z,3.10
2018-12-27T04:08:56.327Z,3.10
2018-12-27T04:10:03.615Z,3.10
2018-12-27T04:11:10.790Z,3.10
2018-12-27T04:12:17.674Z,3.10
2018-12-27T04:13:24.663Z,3.10
2018-12-27T04:14:31.930Z,3.10
2018-12-27T04:15:38.696Z,3.10
2018-12-27T04:16:45.418Z,3.10
2018-12-27T04:17:52.083Z,3.10
2018-12-27T04:18:59.550Z,3.10
2018-12-27T04:20:06.221Z,3.10
2018-12-27T04:21:12.954Z,3.10
2018-12-27T04:22:20.060Z,3.10
2018-12-27T04:23:27.331Z,3.10
2018-12-27T04:24:34.715Z,3.10
2018-12-27T04:25:42.194Z,3.10
2018-12-27T04:26:49.314Z,3.10
2018-12-27T04:27:56.037Z,3.10
2018-12-27T04:29:03.537Z,3.10
2018-12-27T04:30:10.375Z,3.10
2018-12-27T04:31:18.251Z,3.10
2018-12-27T04:32:26.091Z,3.10
2018-12-27T04:33:33.377Z,3.10
2018-12-27T04:34:40.999Z,3.10
2018-12-27T04:35:51.179Z,3.10
2018-12-27T04:36:59.934Z,3.00
2018-12-27T04:38:06.580Z,3.10
2018-12-27T04:39:13.659Z,3.00
2018-12-27T04:40:21.174Z,3.00
2018-12-27T04:41:28.627Z,3.00
2018-12-27T04:42:35.716Z,3.00
2018-12-27T04:43:42.925Z,3.00
2018-12-27T04:44:50.406Z,3.00
2018-12-27T04:45:57.099Z,3.00
2018-12-27T04:47:04.224Z,2.90
2018-12-27T04:48:11.231Z,3.00
2018-12-27T04:49:17.892Z,3.00
2018-12-27T04:50:24.582Z,3.00
2018-12-27T04:51:31.259Z,3.00
2018-12-27T04:52:38.334Z,3.00
2018-12-27T04:53:44.977Z,3.00
2018-12-27T04:54:51.725Z,3.00
2018-12-27T04:55:58.545Z,3.00
2018-12-27T04:57:05.528Z,3.10
2018-12-27T04:58:13.014Z,3.10
2018-12-27T04:59:19.677Z,3.10
2018-12-27T05:00:26.462Z,3.10
2018-12-27T05:01:33.110Z,3.10
2018-12-27T05:02:40.457Z,3.10
2018-12-27T05:03:47.318Z,3.10
2018-12-27T05:04:54.681Z,3.10
2018-12-27T05:06:01.618Z,3.00
2018-12-27T05:07:08.815Z,3.00
2018-12-27T05:08:15.507Z,3.10
2018-12-27T05:09:22.581Z,3.10
2018-12-27T05:10:29.285Z,3.00
2018-12-27T05:11:36.612Z,3.00
2018-12-27T05:12:43.571Z,3.00
2018-12-27T05:13:51.390Z,3.00
2018-12-27T05:14:58.448Z,3.00
2018-12-27T05:16:05.147Z,3.00
2018-12-27T05:17:12.522Z,3.00
2018-12-27T05:18:20.710Z,3.00
2018-12-27T05:19:28.082Z,3.00
2018-12-27T05:20:34.988Z,3.10
2018-12-27T05:22:02.218Z,3.10
2018-12-27T05:23:09.307Z,3.10
2018-12-27T05:24:16.265Z,3.10
2018-12-27T05:25:22.975Z,3.10
2018-12-27T05:26:29.684Z,3.10
2018-12-27T05:27:36.430Z,3.00
2018-12-27T05:28:43.657Z,3.00
2018-12-27T05:29:50.365Z,3.00
2018-12-27T05:30:57.382Z,3.00
2018-12-27T05:32:04.100Z,2.90
2018-12-27T05:33:10.751Z,2.90
2018-12-27T05:34:17.774Z,2.90
2018-12-27T05:35:24.485Z,2.90
2018-12-27T05:36:31.466Z,2.90
2018-12-27T05:37:38.315Z,2.90
2018-12-27T05:38:44.959Z,2.90
2018-12-27T05:39:51.948Z,2.90
2018-12-27T05:40:58.673Z,2.90
2018-12-27T05:42:05.730Z,2.90
2018-12-27T05:43:12.606Z,2.90
2018-12-27T05:44:19.668Z,2.90
2018-12-27T05:45:26.309Z,2.90
2018-12-27T05:46:32.966Z,2.90
2018-12-27T05:47:40.461Z,2.80
2018-12-27T05:48:47.476Z,2.80
2018-12-27T05:49:54.492Z,2.80
2018-12-27T05:51:01.275Z,2.80
2018-12-27T05:52:07.966Z,2.80
2018-12-27T05:53:14.702Z,2.80
2018-12-27T05:54:21.489Z,2.80
2018-12-27T05:55:34.330Z,2.80
2018-12-27T05:56:37.380Z,2.80
2018-12-27T05:57:44.413Z,2.80
2018-12-27T05:58:51.278Z,2.80
2018-12-27T05:59:58.583Z,2.80
2018-12-27T06:01:05.271Z,2.80
2018-12-27T06:02:12.029Z,2.80
2018-12-27T06:03:19.027Z,2.80
2018-12-27T06:04:33.542Z,2.80
2018-12-27T06:05:34.774Z,2.80
2018-12-27T06:06:41.452Z,2.80
2018-12-27T06:07:48.125Z,2.80
2018-12-27T06:08:54.872Z,2.80
2018-12-27T06:10:02.043Z,2.80
2018-12-27T06:11:09.146Z,2.80
2018-12-27T06:12:15.888Z,2.80
2018-12-27T06:13:22.678Z,2.80
2018-12-27T06:14:29.800Z,2.80
2018-12-27T06:15:37.052Z,2.80
2018-12-27T06:16:43.723Z,2.70
2018-12-27T06:17:50.456Z,2.70
2018-12-27T06:18:57.297Z,2.70
2018-12-27T06:20:04.384Z,2.70
2018-12-27T06:21:11.196Z,2.70
2018-12-27T06:22:18.330Z,2.70
2018-12-27T06:23:25.386Z,2.70
2018-12-27T06:24:32.114Z,2.70
2018-12-27T06:25:38.853Z,2.70
2018-12-27T06:26:45.846Z,2.70
2018-12-27T06:27:52.895Z,2.70
2018-12-27T06:28:59.971Z,2.70
2018-12-27T06:30:07.488Z,2.80
2018-12-27T06:31:14.211Z,2.70
2018-12-27T06:32:21.343Z,2.70
2018-12-27T06:33:28.445Z,2.70
2018-12-27T06:34:41.268Z,2.70
2018-12-27T06:35:43.495Z,2.60
2018-12-27T06:36:50.189Z,2.60
2018-12-27T06:37:56.847Z,2.60
2018-12-27T06:39:05.009Z,2.60
2018-12-27T06:40:12.149Z,2.60
2018-12-27T06:41:18.886Z,2.60
2018-12-27T06:42:25.588Z,2.60
2018-12-27T06:43:32.620Z,2.60
2018-12-27T06:44:39.642Z,2.60
2018-12-27T06:45:46.359Z,2.60
2018-12-27T06:46:53.397Z,2.60
2018-12-27T06:48:00.396Z,2.60
2018-12-27T06:49:07.444Z,2.60
2018-12-27T06:50:14.134Z,2.60
2018-12-27T06:51:21.168Z,2.60
2018-12-27T06:52:27.861Z,2.60
2018-12-27T06:53:34.533Z,2.70
2018-12-27T06:54:41.245Z,2.70
2018-12-27T06:55:48.318Z,2.60
2018-12-27T06:56:55.377Z,2.60
2018-12-27T06:58:02.469Z,2.60
2018-12-27T06:59:09.186Z,2.60
2018-12-27T07:00:16.177Z,2.60
2018-12-27T07:01:23.151Z,2.60
2018-12-27T07:02:29.992Z,2.70
2018-12-27T07:03:36.744Z,2.70
2018-12-27T07:04:48.877Z,2.70
2018-12-27T07:05:52.793Z,2.70
2018-12-27T07:07:00.206Z,2.70
2018-12-27T07:08:06.883Z,2.70
2018-12-27T07:09:13.912Z,2.60
2018-12-27T07:10:21.208Z,2.70
2018-12-27T07:11:28.227Z,2.60
2018-12-27T07:12:35.236Z,2.70
2018-12-27T07:13:41.982Z,2.70
2018-12-27T07:14:49.420Z,2.70
2018-12-27T07:15:56.164Z,2.70
2018-12-27T07:17:03.207Z,2.70
2018-12-27T07:18:11.071Z,2.70
2018-12-27T07:19:17.726Z,2.70
2018-12-27T07:20:24.420Z,2.70
2018-12-27T07:21:31.106Z,2.70
2018-12-27T07:22:38.158Z,2.80
2018-12-27T07:23:44.888Z,2.70
2018-12-27T07:24:51.754Z,2.70
2018-12-27T07:25:58.446Z,2.70
2018-12-27T07:27:05.123Z,2.70
2018-12-27T07:28:12.767Z,2.70
2018-12-27T07:29:19.742Z,2.70
2018-12-27T07:30:26.773Z,2.70
2018-12-27T07:31:33.459Z,2.80
2018-12-27T07:32:40.519Z,2.70
2018-12-27T07:33:47.497Z,2.70
2018-12-27T07:34:56.699Z,2.70
2018-12-27T07:36:02.603Z,2.70
2018-12-27T07:37:09.306Z,2.70
2018-12-27T07:38:16.463Z,2.80
2018-12-27T07:39:23.601Z,2.80
2018-12-27T07:40:30.811Z,2.70
2018-12-27T07:41:37.863Z,2.70
2018-12-27T07:42:44.945Z,2.80
2018-12-27T07:43:51.655Z,2.80
2018-12-27T07:44:59.235Z,2.80
2018-12-27T07:46:10.906Z,2.80
2018-12-27T07:47:14.953Z,2.80
2018-12-27T07:48:21.645Z,2.80
2018-12-27T07:49:28.328Z,2.80
2018-12-27T07:50:35.192Z,2.80
2018-12-27T07:51:42.106Z,2.80
2018-12-27T07:52:48.830Z,2.80
2018-12-27T07:53:55.622Z,2.80
2018-12-27T07:55:02.378Z,2.80
2018-12-27T07:56:09.533Z,2.80
2018-12-27T07:57:16.607Z,2.80
2018-12-27T07:58:23.633Z,2.80
2018-12-27T07:59:30.747Z,2.80
2018-12-27T08:00:37.822Z,2.80
2018-12-27T08:01:45.089Z,2.80
2018-12-27T08:02:51.753Z,2.80
2018-12-27T08:03:59.225Z,2.80
2018-12-27T08:05:05.888Z,2.80
2018-12-27T08:06:12.603Z,2.80
2018-12-27T08:07:19.639Z,2.80
2018-12-27T08:08:26.361Z,2.80
2018-12-27T08:09:33.618Z,2.80
2018-12-27T08:10:40.666Z,2.90
2018-12-27T08:11:47.370Z,2.80
2018-12-27T08:12:55.083Z,2.80
2018-12-27T08:14:01.799Z,2.80
2018-12-27T08:15:09.129Z,2.80
2018-12-27T08:16:15.900Z,2.80
2018-12-27T08:17:22.952Z,2.90
2018-12-27T08:18:30.060Z,2.80
2018-12-27T08:19:36.715Z,2.80
2018-12-27T08:20:43.410Z,2.80
2018-12-27T08:21:50.436Z,2.80
2018-12-27T08:22:57.139Z,2.80
2018-12-27T08:24:04.166Z,2.80
2018-12-27T08:25:10.902Z,2.80
2018-12-27T08:26:18.226Z,2.80
2018-12-27T08:27:25.103Z,2.90
2018-12-27T08:28:32.219Z,2.90
2018-12-27T08:29:39.568Z,2.90
2018-12-27T08:30:46.363Z,2.90
2018-12-27T08:31:53.051Z,2.90
2018-12-27T08:33:00.055Z,2.90
2018-12-27T08:34:06.849Z,2.90
2018-12-27T08:35:13.585Z,2.90
2018-12-27T08:36:20.296Z,2.90
2018-12-27T08:37:27.381Z,2.90
2018-12-27T08:38:34.126Z,2.90
2018-12-27T08:39:40.931Z,2.90
2018-12-27T08:40:47.980Z,2.90
2018-12-27T08:41:55.540Z,3.00
2018-12-27T08:43:03.205Z,3.00
2018-12-27T08:44:09.981Z,3.00
2018-12-27T08:45:17.045Z,3.00
2018-12-27T08:46:23.985Z,3.00
2018-12-27T08:47:30.707Z,3.00
2018-12-27T08:48:37.738Z,3.00
2018-12-27T08:49:44.489Z,3.00
2018-12-27T08:50:51.503Z,3.00
2018-12-27T08:51:58.246Z,3.00
2018-12-27T08:53:05.122Z,3.00
2018-12-27T08:54:11.809Z,3.00
2018-12-27T08:55:18.462Z,3.10
2018-12-27T08:56:25.298Z,3.00
2018-12-27T08:57:32.014Z,3.00
2018-12-27T08:58:39.445Z,3.00
2018-12-27T08:59:46.360Z,3.10
2018-12-27T09:00:53.085Z,3.00
2018-12-27T09:02:00.106Z,3.10
2018-12-27T09:03:06.885Z,3.10
2018-12-27T09:04:14.347Z,3.10
2018-12-27T09:05:21.026Z,3.10
2018-12-27T09:06:28.087Z,3.10
2018-12-27T09:07:35.090Z,3.20
2018-12-27T09:08:41.847Z,3.20
2018-12-27T09:09:48.753Z,3.20
2018-12-27T09:10:55.674Z,3.20
2018-12-27T09:12:02.379Z,3.20
2018-12-27T09:13:09.406Z,3.20
2018-12-27T09:14:16.465Z,3.30
2018-12-27T09:15:23.272Z,3.30
2018-12-27T09:16:30.950Z,3.30
2018-12-27T09:17:38.098Z,3.40
2018-12-27T09:18:45.211Z,3.30
2018-12-27T09:19:52.368Z,3.30
2018-12-27T09:20:59.076Z,3.40
2018-12-27T09:22:06.436Z,3.40
2018-12-27T09:23:13.715Z,3.40
2018-12-27T09:24:20.450Z,3.40
2018-12-27T09:25:27.495Z,3.40
2018-12-27T09:26:35.043Z,3.40
2018-12-27T09:27:42.110Z,3.40
2018-12-27T09:28:48.959Z,3.40
2018-12-27T09:29:55.847Z,3.40
2018-12-27T09:31:02.618Z,3.50
2018-12-27T09:32:10.021Z,3.50
2018-12-27T09:33:16.769Z,3.50
2018-12-27T09:34:23.809Z,3.50
2018-12-27T09:35:30.949Z,3.50
2018-12-27T09:36:38.125Z,3.50
2018-12-27T09:37:45.220Z,3.40
2018-12-27T09:38:51.929Z,3.40
2018-12-27T09:40:00.176Z,3.40
2018-12-27T09:41:06.959Z,3.50
2018-12-27T09:42:14.108Z,3.50
2018-12-27T09:43:21.203Z,3.50
2018-12-27T09:44:28.599Z,3.50
2018-12-27T09:45:35.751Z,3.50
2018-12-27T09:46:42.968Z,3.50
2018-12-27T09:47:49.682Z,3.50
2018-12-27T09:48:56.335Z,3.50
2018-12-27T09:50:03.035Z,3.50
2018-12-27T09:51:09.776Z,3.60
2018-12-27T09:52:17.109Z,3.60
2018-12-27T09:53:23.819Z,3.60
2018-12-27T09:54:30.487Z,3.60
2018-12-27T09:55:37.253Z,3.50
2018-12-27T09:56:43.946Z,3.50
2018-12-27T09:57:50.937Z,3.50
2018-12-27T09:58:58.657Z,3.50
2018-12-27T10:00:06.240Z,3.50
2018-12-27T10:01:13.303Z,3.50
2018-12-27T10:02:20.433Z,3.50
2018-12-27T10:03:27.865Z,3.60
2018-12-27T10:04:34.980Z,3.60
2018-12-27T10:05:41.904Z,3.60
2018-12-27T10:06:48.619Z,3.60
2018-12-27T10:07:57.519Z,3.60
2018-12-27T10:09:04.636Z,3.60
2018-12-27T10:10:11.440Z,3.60
2018-12-27T10:11:18.175Z,3.60
2018-12-27T10:12:25.179Z,3.60
2018-12-27T10:13:31.897Z,3.60
2018-12-27T10:14:38.961Z,3.60
2018-12-27T10:15:45.711Z,3.60
2018-12-27T10:16:52.933Z,3.60
2018-12-27T10:18:00.019Z,3.60
2018-12-27T10:19:08.951Z,3.60
2018-12-27T10:20:15.636Z,3.60
2018-12-27T10:21:23.059Z,3.60
2018-12-27T10:22:29.782Z,3.60
2018-12-27T10:23:36.933Z,3.60
2018-12-27T10:24:44.026Z,3.60
2018-12-27T10:25:51.116Z,3.70
2018-12-27T10:26:57.848Z,3.60
2018-12-27T10:28:04.918Z,3.70
2018-12-27T10:29:11.671Z,3.60
2018-12-27T10:30:18.350Z,3.60
2018-12-27T10:31:25.860Z,3.70
2018-12-27T10:32:32.780Z,3.60
2018-12-27T10:33:39.480Z,3.70
2018-12-27T10:34:46.200Z,3.70
2018-12-27T10:35:53.200Z,3.70
2018-12-27T10:37:00.209Z,3.70
2018-12-27T10:38:06.951Z,3.70
2018-12-27T10:39:15.642Z,3.70
2018-12-27T10:40:22.315Z,3.70
2018-12-27T10:41:29.200Z,3.80
2018-12-27T10:42:36.245Z,3.70
2018-12-27T10:43:43.251Z,3.70
2018-12-27T10:44:50.121Z,3.80
2018-12-27T10:45:56.838Z,3.80
2018-12-27T10:47:04.250Z,3.80
2018-12-27T10:48:10.958Z,3.90
2018-12-27T10:49:17.964Z,3.90
2018-12-27T10:50:24.682Z,3.90
2018-12-27T10:51:31.816Z,3.90
2018-12-27T10:52:38.933Z,3.90
2018-12-27T10:53:45.838Z,3.90
2018-12-27T10:54:52.513Z,4.00
2018-12-27T10:55:59.928Z,3.90
2018-12-27T10:57:06.690Z,3.90
2018-12-27T10:58:13.877Z,3.90
2018-12-27T10:59:20.982Z,4.00
2018-12-27T11:00:28.088Z,3.90
2018-12-27T11:01:35.469Z,3.80
2018-12-27T11:02:42.559Z,3.80
2018-12-27T11:03:49.295Z,3.80
2018-12-27T11:04:57.495Z,3.80
2018-12-27T11:06:04.509Z,3.80
2018-12-27T11:07:11.370Z,3.90
2018-12-27T11:08:18.700Z,3.90
2018-12-27T11:09:25.431Z,3.90
2018-12-27T11:10:32.421Z,3.90
2018-12-27T11:11:39.095Z,4.00
2018-12-27T11:12:46.147Z,4.00
2018-12-27T11:13:53.618Z,4.00
2018-12-27T11:15:00.382Z,4.00
2018-12-27T11:16:07.307Z,4.00
2018-12-27T11:17:14.439Z,4.00
2018-12-27T11:18:21.152Z,4.00
2018-12-27T11:19:27.804Z,4.00
2018-12-27T11:20:34.484Z,4.00
2018-12-27T11:21:41.462Z,3.90
2018-12-27T11:22:48.630Z,3.90
2018-12-27T11:23:55.326Z,3.90
2018-12-27T11:25:02.179Z,4.00
2018-12-27T11:26:09.015Z,4.00
2018-12-27T11:27:16.137Z,4.00
2018-12-27T11:28:22.852Z,3.90
2018-12-27T11:29:29.831Z,3.90
2018-12-27T11:30:36.926Z,3.90
2018-12-27T11:31:43.968Z,4.00
2018-12-27T11:32:51.465Z,4.00
2018-12-27T11:33:58.309Z,4.00
2018-12-27T11:35:05.175Z,4.00
2018-12-27T11:36:17.243Z,3.90
2018-12-27T11:37:20.400Z,3.90
2018-12-27T11:38:27.099Z,3.90
2018-12-27T11:39:33.933Z,3.90
2018-12-27T11:40:40.737Z,3.90
2018-12-27T11:41:47.774Z,3.90
2018-12-27T11:42:54.869Z,3.90
2018-12-27T11:44:01.590Z,4.00
2018-12-27T11:45:08.888Z,4.00
2018-12-27T11:46:16.001Z,4.00
2018-12-27T11:47:25.259Z,4.00
2018-12-27T11:48:31.993Z,4.00
2018-12-27T11:49:39.084Z,4.00
2018-12-27T11:50:46.150Z,4.00
2018-12-27T11:51:53.237Z,3.90
2018-12-27T11:53:00.379Z,4.00
2018-12-27T11:54:07.088Z,4.00
2018-12-27T11:55:13.827Z,3.90
2018-12-27T11:56:20.562Z,3.90
2018-12-27T11:57:27.269Z,3.90
2018-12-27T11:58:34.348Z,3.90
2018-12-27T11:59:41.406Z,3.80
2018-12-27T12:00:48.164Z,3.80
2018-12-27T12:01:55.107Z,3.90
2018-12-27T12:03:01.837Z,3.90
2018-12-27T12:04:12.747Z,3.90
2018-12-27T12:05:19.468Z,3.90
2018-12-27T12:06:26.460Z,3.90
2018-12-27T12:07:33.480Z,3.90
2018-12-27T12:08:40.834Z,4.00
2018-12-27T12:09:47.782Z,4.00
2018-12-27T12:10:55.010Z,4.00
2018-12-27T12:12:01.748Z,4.00
2018-12-27T12:13:08.823Z,4.00
2018-12-27T12:14:15.563Z,4.00
2018-12-27T12:15:22.901Z,4.00
2018-12-27T12:16:29.970Z,4.00
2018-12-27T12:17:36.638Z,4.00
2018-12-27T12:18:44.067Z,4.00
2018-12-27T12:19:50.779Z,4.10
2018-12-27T12:20:57.547Z,4.00
2018-12-27T12:22:04.556Z,4.00
2018-12-27T12:23:11.311Z,4.10
2018-12-27T12:24:18.643Z,4.10
2018-12-27T12:25:25.412Z,4.10
2018-12-27T12:26:32.176Z,4.20
2018-12-27T12:27:39.126Z,4.20
2018-12-27T12:28:45.784Z,4.20
2018-12-27T12:29:52.956Z,4.20
2018-12-27T12:30:59.620Z,4.30
2018-12-27T12:32:06.318Z,4.30
2018-12-27T12:33:13.038Z,4.30
2018-12-27T12:34:20.438Z,4.40
2018-12-27T12:35:27.508Z,4.40
2018-12-27T12:36:34.901Z,4.40
2018-12-27T12:37:43.193Z,4.40
2018-12-27T12:38:50.189Z,4.40
2018-12-27T12:39:57.261Z,4.40
2018-12-27T12:41:03.959Z,4.30
2018-12-27T12:42:10.979Z,4.30
2018-12-27T12:43:18.216Z,4.30
2018-12-27T12:44:24.927Z,4.30
2018-12-27T12:45:31.753Z,4.30
2018-12-27T12:46:38.521Z,4.20
2018-12-27T12:47:45.327Z,4.30
2018-12-27T12:48:52.653Z,4.20
2018-12-27T12:49:59.450Z,4.20
2018-12-27T12:51:06.413Z,4.20
2018-12-27T12:52:13.121Z,4.20
2018-12-27T12:53:20.023Z,4.20
2018-12-27T12:54:26.699Z,4.20
2018-12-27T12:55:33.409Z,4.20
2018-12-27T12:56:40.628Z,4.20
2018-12-27T12:57:47.984Z,4.20
2018-12-27T12:58:54.709Z,4.30
2018-12-27T13:00:03.108Z,4.30
2018-12-27T13:01:10.962Z,4.30
2018-12-27T13:02:17.688Z,4.40
2018-12-27T13:03:24.429Z,4.30
2018-12-27T13:04:31.515Z,4.40
2018-12-27T13:05:38.985Z,4.40
2018-12-27T13:06:45.732Z,4.40
2018-12-27T13:07:52.885Z,4.40
2018-12-27T13:08:59.624Z,4.40
2018-12-27T13:10:06.882Z,4.40
2018-12-27T13:11:13.545Z,4.40
2018-12-27T13:12:20.627Z,4.40
2018-12-27T13:13:27.657Z,4.50
2018-12-27T13:14:34.463Z,4.50
2018-12-27T13:15:41.126Z,4.40
2018-12-27T13:16:48.074Z,4.50
2018-12-27T13:17:54.793Z,4.50
2018-12-27T13:19:02.243Z,4.50
2018-12-27T13:20:09.074Z,4.50
2018-12-27T13:21:15.841Z,4.50
2018-12-27T13:22:22.863Z,4.60
2018-12-27T13:23:29.562Z,4.60
2018-12-27T13:24:36.677Z,4.60
2018-12-27T13:25:43.914Z,4.60
2018-12-27T13:26:50.764Z,4.60
2018-12-27T13:27:57.468Z,4.60
2018-12-27T13:29:04.401Z,4.60
2018-12-27T13:30:11.411Z,4.60
2018-12-27T13:31:18.348Z,4.60
2018-12-27T13:32:25.712Z,4.70
2018-12-27T13:33:32.936Z,4.70
2018-12-27T13:34:39.629Z,4.70
2018-12-27T13:35:46.696Z,4.70
2018-12-27T13:36:53.542Z,4.70
2018-12-27T13:38:00.702Z,4.70
2018-12-27T13:39:09.431Z,4.70
2018-12-27T13:40:16.523Z,4.70
2018-12-27T13:41:23.588Z,4.70
2018-12-27T13:42:30.330Z,4.70
2018-12-27T13:43:37.405Z,4.70
2018-12-27T13:44:44.139Z,4.70
2018-12-27T13:45:51.007Z,4.70
2018-12-27T13:46:57.673Z,4.70
2018-12-27T13:48:04.370Z,4.70
2018-12-27T13:49:11.445Z,4.70
2018-12-27T13:50:18.148Z,4.80
2018-12-27T13:51:24.966Z,4.70
2018-12-27T13:52:32.465Z,4.70
2018-12-27T13:53:39.290Z,4.70
2018-12-27T13:54:45.967Z,4.70
2018-12-27T13:55:53.257Z,4.70
2018-12-27T13:57:00.127Z,4.70
2018-12-27T13:58:06.839Z,4.70
2018-12-27T13:59:14.521Z,4.70
2018-12-27T14:00:21.362Z,4.70
2018-12-27T14:01:28.932Z,4.70
2018-12-27T14:02:36.237Z,4.70
2018-12-27T14:03:43.313Z,4.70
2018-12-27T14:04:50.148Z,4.70
2018-12-27T14:05:58.373Z,4.70
2018-12-27T14:07:05.060Z,4.70
2018-12-27T14:08:12.289Z,4.70
2018-12-27T14:09:19.008Z,4.70
2018-12-27T14:10:25.859Z,4.70
2018-12-27T14:11:32.878Z,4.70
2018-12-27T14:12:39.636Z,4.70
2018-12-27T14:13:47.375Z,4.60
2018-12-27T14:14:54.918Z,4.60
2018-12-27T14:16:01.653Z,4.70
2018-12-27T14:17:08.624Z,4.70
2018-12-27T14:18:15.447Z,4.70
2018-12-27T14:19:22.659Z,4.70
2018-12-27T14:20:30.013Z,4.70
2018-12-27T14:21:37.750Z,4.70
2018-12-27T14:22:44.841Z,4.70
2018-12-27T14:23:51.669Z,4.70
2018-12-27T14:24:58.465Z,4.70
2018-12-27T14:26:05.616Z,4.70
2018-12-27T14:27:12.390Z,4.70
2018-12-27T14:28:19.173Z,4.70
2018-12-27T14:29:26.677Z,4.70
2018-12-27T14:30:33.338Z,4.60
2018-12-27T14:31:40.040Z,4.60
2018-12-27T14:32:47.288Z,4.60
2018-12-27T14:33:54.018Z,4.60
2018-12-27T14:35:01.178Z,4.60
2018-12-27T14:36:08.258Z,4.60
2018-12-27T14:37:15.049Z,4.60
2018-12-27T14:38:22.019Z,4.60
2018-12-27T14:39:29.154Z,4.70
2018-12-27T14:40:35.950Z,4.60
2018-12-27T14:41:43.131Z,4.60
2018-12-27T14:42:50.092Z,4.60
2018-12-27T14:43:57.314Z,4.60
2018-12-27T14:45:04.391Z,4.60
2018-12-27T14:46:11.179Z,4.60
2018-12-27T14:47:17.899Z,4.60
2018-12-27T14:48:24.966Z,4.60
2018-12-27T14:49:31.996Z,4.60
2018-12-27T14:50:38.713Z,4.60
2018-12-27T14:51:45.452Z,4.60
2018-12-27T14:52:53.015Z,4.70